createdAt,value
2023-03-03T00:00:44.996Z,100.00
2023-03-03T00:03:19.043Z,100.00
2023-03-03T00:06:35.624Z,100.00
2023-03-03T00:09:06.979Z,100.00
2023-03-03T00:11:47.602Z,100.00
2023-03-03T00:14:44.449Z,100.00
2023-03-03T00:17:40.497Z,100.00
2023-03-03T00:20:35.231Z,100.00
2023-03-03T00:23:18.388Z,100.00
2023-03-03T00:25:51.268Z,100.00
2023-03-03T00:28:44.452Z,100.00
2023-03-03T00:31:19.387Z,100.00
2023-03-03T00:33:54.991Z,100.00
2023-03-03T00:36:37.454Z,100.00
2023-03-03T00:39:23.306Z,100.00
2023-03-03T00:41:53.167Z,100.00
2023-03-03T00:44:43.846Z,100.00
2023-03-03T00:47:26.116Z,100.00
2023-03-03T00:50:01.216Z,100.00
2023-03-03T00:52:32.016Z,100.00
2023-03-03T00:55:01.462Z,100.00
2023-03-03T00:57:30.816Z,100.00
2023-03-03T01:00:00.730Z,100.00
2023-03-03T01:02:31.270Z,100.00
2023-03-03T01:05:00.448Z,100.00
2023-03-03T01:07:31.322Z,100.00
2023-03-03T01:10:00.660Z,100.00
2023-03-03T01:12:30.032Z,100.00
2023-03-03T01:14:59.703Z,100.00
2023-03-03T01:17:29.040Z,100.00
2023-03-03T01:19:59.773Z,100.00
2023-03-03T01:22:29.488Z,100.00
2023-03-03T01:25:00.420Z,100.00
2023-03-03T01:27:29.822Z,100.00
2023-03-03T01:29:59.390Z,100.00
2023-03-03T01:32:30.073Z,100.00
2023-03-03T01:34:59.408Z,100.00
2023-03-03T01:37:28.371Z,100.00
2023-03-03T01:39:57.760Z,100.00
2023-03-03T01:42:29.465Z,100.00
2023-03-03T01:45:16.345Z,100.00
2023-03-03T01:47:50.182Z,100.00
2023-03-03T01:50:21.820Z,100.00
2023-03-03T01:52:51.297Z,100.00
2023-03-03T01:55:24.390Z,100.00
2023-03-03T01:58:01.683Z,100.00
2023-03-03T02:00:33.070Z,100.00
2023-03-03T02:03:03.116Z,100.00
2023-03-03T02:05:33.500Z,100.00
2023-03-03T02:08:03.791Z,100.00
2023-03-03T02:10:33.450Z,100.00
2023-03-03T02:13:04.173Z,100.00
2023-03-03T02:15:36.800Z,100.00
2023-03-03T02:18:09.021Z,100.00
2023-03-03T02:20:48.468Z,100.00
2023-03-03T02:23:23.862Z,100.00
2023-03-03T02:26:08.214Z,100.00
2023-03-03T02:28:39.359Z,100.00
2023-03-03T02:31:18.840Z,100.00
2023-03-03T02:33:50.331Z,100.00
2023-03-03T02:36:21.456Z,100.00
2023-03-03T02:38:57.262Z,100.00
2023-03-03T02:41:37.797Z,100.00
2023-03-03T02:44:10.976Z,100.00
2023-03-03T02:46:42.206Z,100.00
2023-03-03T02:49:14.588Z,100.00
2023-03-03T02:51:44.651Z,100.00
2023-03-03T02:54:15.867Z,100.00
2023-03-03T02:56:46.773Z,100.00
2023-03-03T02:59:16.722Z,100.00
2023-03-03T03:01:50.877Z,100.00
2023-03-03T03:04:23.956Z,100.00
2023-03-03T03:06:54.834Z,100.00
2023-03-03T03:09:26.507Z,100.00
2023-03-03T03:11:59.703Z,100.00
2023-03-03T03:14:28.857Z,100.00
2023-03-03T03:16:59.003Z,100.00
2023-03-03T03:19:30.071Z,100.00
2023-03-03T03:22:02.966Z,100.00
2023-03-03T03:24:34.281Z,100.00
2023-03-03T03:27:08.871Z,100.00
2023-03-03T03:29:38.564Z,100.00
2023-03-03T03:32:08.623Z,100.00
2023-03-03T03:34:38.496Z,100.00
2023-03-03T03:37:10.035Z,100.00
2023-03-03T03:39:40.781Z,100.00
2023-03-03T03:42:11.630Z,100.00
2023-03-03T03:44:41.193Z,100.00
2023-03-03T03:47:11.047Z,100.00
2023-03-03T03:49:41.006Z,100.00
2023-03-03T03:52:10.563Z,100.00
2023-03-03T03:54:40.193Z,100.00
2023-03-03T03:57:09.405Z,100.00
2023-03-03T03:59:40.236Z,100.00
2023-03-03T04:02:09.566Z,100.00
2023-03-03T04:04:38.887Z,100.00
2023-03-03T04:07:10.770Z,100.00
2023-03-03T04:09:41.750Z,100.00
2023-03-03T04:12:12.608Z,100.00
2023-03-03T04:14:46.827Z,100.00
2023-03-03T04:17:18.529Z,100.00
2023-03-03T04:19:48.142Z,100.00
2023-03-03T04:22:17.767Z,100.00
2023-03-03T04:24:48.756Z,100.00
2023-03-03T04:27:19.628Z,100.00
2023-03-03T04:29:50.677Z,100.00
2023-03-03T04:32:20.265Z,100.00
2023-03-03T04:34:58.712Z,100.00
2023-03-03T04:37:37.649Z,100.00
2023-03-03T04:40:10.103Z,100.00
2023-03-03T04:42:40.422Z,100.00
2023-03-03T04:45:13.545Z,100.00
2023-03-03T04:47:43.944Z,100.00
2023-03-03T04:50:13.595Z,100.00
2023-03-03T04:52:43.513Z,100.00
2023-03-03T04:55:14.378Z,100.00
2023-03-03T04:57:43.923Z,100.00
2023-03-03T05:00:17.678Z,100.00
2023-03-03T05:02:49.793Z,100.00
2023-03-03T05:05:19.131Z,100.00
2023-03-03T05:07:48.510Z,100.00
2023-03-03T05:10:17.863Z,100.00
2023-03-03T05:12:47.218Z,100.00
2023-03-03T05:15:18.154Z,100.00
2023-03-03T05:17:48.341Z,100.00
2023-03-03T05:20:18.528Z,100.00
2023-03-03T05:22:47.943Z,100.00
2023-03-03T05:25:17.387Z,100.00
2023-03-03T05:27:46.684Z,100.00
2023-03-03T05:30:17.708Z,100.00
2023-03-03T05:32:47.218Z,100.00
2023-03-03T05:35:16.507Z,100.00
2023-03-03T05:37:47.962Z,100.00
2023-03-03T05:40:17.707Z,100.00
2023-03-03T05:42:46.984Z,100.00
2023-03-03T05:45:20.589Z,100.00
2023-03-03T05:47:50.021Z,100.00
2023-03-03T05:50:19.909Z,100.00
2023-03-03T05:52:50.026Z,100.00
2023-03-03T05:55:19.749Z,100.00
2023-03-03T05:57:49.907Z,100.00
2023-03-03T06:00:21.826Z,100.00
2023-03-03T06:02:51.465Z,100.00
2023-03-03T06:05:20.780Z,100.00
2023-03-03T06:07:49.912Z,100.00
2023-03-03T06:10:19.427Z,100.00
2023-03-03T06:12:53.130Z,100.00
2023-03-03T06:15:24.167Z,100.00
2023-03-03T06:17:53.852Z,100.00
2023-03-03T06:20:23.088Z,100.00
2023-03-03T06:22:52.718Z,100.00
2023-03-03T06:25:22.421Z,100.00
2023-03-03T06:27:51.618Z,100.00
2023-03-03T06:30:21.205Z,100.00
2023-03-03T06:32:51.833Z,100.00
2023-03-03T06:35:21.683Z,100.00
2023-03-03T06:37:51.718Z,100.00
2023-03-03T06:40:21.424Z,100.00
2023-03-03T06:42:50.540Z,100.00
2023-03-03T06:45:19.874Z,100.00
2023-03-03T06:47:51.416Z,100.00
2023-03-03T06:50:22.392Z,100.00
2023-03-03T06:53:06.532Z,100.00
2023-03-03T06:55:35.621Z,100.00
2023-03-03T06:58:12.243Z,100.00
2023-03-03T07:00:44.243Z,100.00
2023-03-03T07:03:17.398Z,100.00
2023-03-03T07:05:47.138Z,100.00
2023-03-03T07:08:19.028Z,100.00
2023-03-03T07:10:49.815Z,100.00
2023-03-03T07:13:22.162Z,100.00
2023-03-03T07:15:53.519Z,100.00
2023-03-03T07:18:48.485Z,100.00
2023-03-03T07:21:20.553Z,100.00
2023-03-03T07:23:51.531Z,100.00
2023-03-03T07:26:23.314Z,100.00
2023-03-03T07:28:55.973Z,100.00
2023-03-03T07:31:32.345Z,100.00
2023-03-03T07:34:03.592Z,100.00
2023-03-03T07:36:38.028Z,100.00
2023-03-03T07:39:26.845Z,100.00
2023-03-03T07:42:02.077Z,100.00
2023-03-03T07:44:37.802Z,100.00
2023-03-03T07:47:19.664Z,100.00
2023-03-03T07:49:51.735Z,100.00
2023-03-03T07:52:32.300Z,100.00
2023-03-03T07:55:21.353Z,100.00
2023-03-03T07:57:59.037Z,100.00
2023-03-03T08:01:13.073Z,100.00
2023-03-03T08:03:45.959Z,100.00
2023-03-03T08:06:41.472Z,100.00
2023-03-03T08:09:39.348Z,100.00
2023-03-03T08:12:26.060Z,100.00
2023-03-03T08:14:56.868Z,100.00
2023-03-03T08:17:37.287Z,95.37
2023-03-03T08:20:43.515Z,99.01
2023-03-03T08:23:15.550Z,98.64
2023-03-03T08:25:45.870Z,89.33
2023-03-03T08:28:15.317Z,84.31
2023-03-03T08:30:45.842Z,84.58
2023-03-03T08:33:15.608Z,89.22
2023-03-03T08:35:45.723Z,88.85
2023-03-03T08:38:18.741Z,88.51
2023-03-03T08:40:48.765Z,91.53
2023-03-03T08:43:21.640Z,91.21
2023-03-03T08:45:52.145Z,91.38
2023-03-03T08:48:23.199Z,92.20
2023-03-03T08:50:52.996Z,83.71
2023-03-03T08:53:24.649Z,92.09
2023-03-03T08:55:54.506Z,84.53
2023-03-03T08:58:34.686Z,92.35
2023-03-03T09:01:05.981Z,90.07
2023-03-03T09:03:35.522Z,93.14
2023-03-03T09:06:05.208Z,89.42
2023-03-03T09:08:36.293Z,84.33
2023-03-03T09:11:10.528Z,84.93
2023-03-03T09:13:39.745Z,78.99
2023-03-03T09:16:15.361Z,70.59
2023-03-03T09:18:46.251Z,84.94
2023-03-03T09:21:23.099Z,80.13
2023-03-03T09:23:58.272Z,82.76
2023-03-03T09:26:32.980Z,71.79
2023-03-03T09:29:23.669Z,81.10
2023-03-03T09:31:54.611Z,78.94
2023-03-03T09:34:28.669Z,75.93
2023-03-03T09:37:00.215Z,69.80
2023-03-03T09:39:32.560Z,66.31
2023-03-03T09:42:21.846Z,65.75
2023-03-03T09:45:27.386Z,66.95
2023-03-03T09:48:27.516Z,73.32
2023-03-03T09:51:08.649Z,62.90
2023-03-03T09:53:57.888Z,64.04
2023-03-03T09:56:34.208Z,67.08
2023-03-03T09:59:17.863Z,58.55
2023-03-03T10:02:04.907Z,59.24
2023-03-03T10:04:57.774Z,64.84
2023-03-03T10:07:40.430Z,61.86
2023-03-03T10:10:37.310Z,58.34
2023-03-03T10:13:21.166Z,59.13
2023-03-03T10:16:02.157Z,57.67
2023-03-03T10:18:34.348Z,58.92
2023-03-03T10:21:11.704Z,57.90
2023-03-03T10:23:56.244Z,57.63
2023-03-03T10:26:46.502Z,57.78
2023-03-03T10:29:31.028Z,62.04
2023-03-03T10:32:32.301Z,58.63
2023-03-03T10:35:26.062Z,59.59
2023-03-03T10:38:14.958Z,58.47
2023-03-03T10:40:52.421Z,58.27
2023-03-03T10:43:41.316Z,56.20
2023-03-03T10:46:25.765Z,55.57
2023-03-03T10:49:30.366Z,53.40
2023-03-03T10:52:20.740Z,52.33
2023-03-03T10:55:05.660Z,52.91
2023-03-03T10:57:39.655Z,52.62
2023-03-03T11:00:21.962Z,54.80
2023-03-03T11:03:24.954Z,54.45
2023-03-03T11:06:00.213Z,52.93
2023-03-03T11:08:35.641Z,51.16
2023-03-03T11:11:18.562Z,50.30
2023-03-03T11:13:56.079Z,49.77
2023-03-03T11:16:38.428Z,48.25
2023-03-03T11:19:21.006Z,50.12
2023-03-03T11:21:59.877Z,48.63
2023-03-03T11:24:42.511Z,50.41
2023-03-03T11:27:27.947Z,51.73
2023-03-03T11:30:10.311Z,52.91
2023-03-03T11:32:50.393Z,53.10
2023-03-03T11:35:25.938Z,53.41
2023-03-03T11:38:08.300Z,53.86
2023-03-03T11:40:46.616Z,54.32
2023-03-03T11:43:35.773Z,55.51
2023-03-03T11:46:10.962Z,55.98
2023-03-03T11:48:47.448Z,55.81
2023-03-03T11:51:24.669Z,56.07
2023-03-03T11:54:02.694Z,56.15
2023-03-03T11:56:37.358Z,55.34
2023-03-03T11:59:35.615Z,54.34
2023-03-03T12:02:15.734Z,54.31
2023-03-03T12:04:51.468Z,54.64
2023-03-03T12:07:30.826Z,54.96
2023-03-03T12:10:15.839Z,55.73
2023-03-03T12:12:46.822Z,58.82
2023-03-03T12:15:27.901Z,56.75
2023-03-03T12:18:25.372Z,57.54
2023-03-03T12:21:15.681Z,58.16
2023-03-03T12:24:04.516Z,58.75
2023-03-03T12:26:45.814Z,60.37
2023-03-03T12:29:27.078Z,59.49
2023-03-03T12:32:14.239Z,62.11
2023-03-03T12:34:51.230Z,62.44
2023-03-03T12:37:42.045Z,65.73
2023-03-03T12:40:15.721Z,65.22
2023-03-03T12:42:54.269Z,65.43
2023-03-03T12:45:37.877Z,65.83
2023-03-03T12:48:16.986Z,63.98
2023-03-03T12:50:59.212Z,63.85
2023-03-03T12:53:47.340Z,62.38
2023-03-03T12:56:25.705Z,63.50
2023-03-03T12:59:04.853Z,62.11
2023-03-03T13:01:47.083Z,62.29
2023-03-03T13:04:31.104Z,62.91
2023-03-03T13:07:03.935Z,63.72
2023-03-03T13:09:43.822Z,62.80
2023-03-03T13:12:30.566Z,62.54
2023-03-03T13:15:13.833Z,62.18
2023-03-03T13:17:54.033Z,61.29
2023-03-03T13:20:32.040Z,59.91
2023-03-03T13:23:08.351Z,59.24
2023-03-03T13:25:52.718Z,59.22
2023-03-03T13:28:31.865Z,57.88
2023-03-03T13:31:10.022Z,58.90
2023-03-03T13:33:49.018Z,59.86
2023-03-03T13:36:19.933Z,58.00
2023-03-03T13:38:54.513Z,56.95
2023-03-03T13:41:28.715Z,56.12
2023-03-03T13:44:03.202Z,55.70
2023-03-03T13:46:42.220Z,55.39
2023-03-03T13:49:30.114Z,56.90
2023-03-03T13:52:03.617Z,57.93
2023-03-03T13:54:57.759Z,58.11
2023-03-03T13:57:42.262Z,57.19
2023-03-03T14:00:22.760Z,57.34
2023-03-03T14:03:12.389Z,58.33
2023-03-03T14:05:45.542Z,58.98
2023-03-03T14:08:27.387Z,58.86
2023-03-03T14:11:08.658Z,63.81
2023-03-03T14:13:51.631Z,67.93
2023-03-03T14:16:33.419Z,74.33
2023-03-03T14:19:10.716Z,75.13
2023-03-03T14:21:46.700Z,90.72
2023-03-03T14:24:18.356Z,95.07
2023-03-03T14:26:49.721Z,91.10
2023-03-03T14:29:30.383Z,91.08
2023-03-03T14:32:01.546Z,88.74
2023-03-03T14:34:38.394Z,88.86
2023-03-03T14:37:24.460Z,96.97
2023-03-03T14:40:08.224Z,99.00
2023-03-03T14:42:48.544Z,99.04
2023-03-03T14:45:30.065Z,100.00
2023-03-03T14:48:07.121Z,99.51
2023-03-03T14:50:40.048Z,100.00
2023-03-03T14:53:17.302Z,100.00
2023-03-03T14:55:49.355Z,100.00
2023-03-03T14:58:31.453Z,100.00
2023-03-03T15:01:22.234Z,100.00
2023-03-03T15:04:00.780Z,100.00
2023-03-03T15:06:44.365Z,100.00
2023-03-03T15:09:33.880Z,100.00
2023-03-03T15:12:05.987Z,100.00
2023-03-03T15:14:39.671Z,100.00
2023-03-03T15:17:25.172Z,100.00
2023-03-03T15:20:10.684Z,100.00
2023-03-03T15:22:53.399Z,100.00
2023-03-03T15:25:42.556Z,100.00
2023-03-03T15:28:29.096Z,100.00
2023-03-03T15:31:04.942Z,100.00
2023-03-03T15:33:40.109Z,100.00
2023-03-03T15:36:15.197Z,100.00
2023-03-03T15:38:59.426Z,100.00
2023-03-03T15:41:41.010Z,100.00
2023-03-03T15:44:24.025Z,100.00
2023-03-03T15:47:13.185Z,100.00
2023-03-03T15:50:03.267Z,100.00
2023-03-03T15:52:46.790Z,100.00
2023-03-03T15:55:37.873Z,100.00
2023-03-03T15:58:29.869Z,100.00
2023-03-03T16:01:10.794Z,100.00
2023-03-03T16:03:46.538Z,100.00
2023-03-03T16:06:19.523Z,100.00
2023-03-03T16:08:57.823Z,100.00
2023-03-03T16:11:36.848Z,100.00
2023-03-03T16:14:21.603Z,100.00
2023-03-03T16:16:56.907Z,100.00
2023-03-03T16:19:41.306Z,100.00
2023-03-03T16:22:47.816Z,100.00
2023-03-03T16:25:30.437Z,100.00
2023-03-03T16:28:07.189Z,100.00
2023-03-03T16:30:40.265Z,100.00
2023-03-03T16:33:23.571Z,100.00
2023-03-03T16:36:04.276Z,100.00
2023-03-03T16:38:39.197Z,100.00
2023-03-03T16:41:14.565Z,100.00
2023-03-03T16:43:56.496Z,100.00
2023-03-03T16:46:34.925Z,100.00
2023-03-03T16:49:14.710Z,100.00
2023-03-03T16:51:50.056Z,100.00
2023-03-03T16:54:31.678Z,100.00
2023-03-03T16:57:10.911Z,100.00
2023-03-03T17:00:03.537Z,100.00
2023-03-03T17:02:54.250Z,100.00
2023-03-03T17:05:37.333Z,100.00
2023-03-03T17:08:21.988Z,100.00
2023-03-03T17:10:56.655Z,100.00
2023-03-03T17:13:47.727Z,100.00
2023-03-03T17:16:23.796Z,100.00
2023-03-03T17:19:02.796Z,100.00
2023-03-03T17:21:41.137Z,100.00
2023-03-03T17:24:21.588Z,100.00
2023-03-03T17:27:03.897Z,100.00
2023-03-03T17:29:48.174Z,100.00
2023-03-03T17:32:36.818Z,100.00
2023-03-03T17:35:22.841Z,100.00
2023-03-03T17:38:00.698Z,100.00
2023-03-03T17:40:49.828Z,100.00
2023-03-03T17:43:24.710Z,100.00
2023-03-03T17:45:57.587Z,100.00
2023-03-03T17:48:50.180Z,100.00
2023-03-03T17:51:57.131Z,100.00
2023-03-03T17:54:41.665Z,100.00
2023-03-03T17:57:25.907Z,100.00
2023-03-03T18:00:04.898Z,100.00
2023-03-03T18:03:12.130Z,100.00
2023-03-03T18:06:06.434Z,100.00
2023-03-03T18:09:14.292Z,100.00
2023-03-03T18:12:05.267Z,100.00
2023-03-03T18:14:53.457Z,100.00
2023-03-03T18:17:35.775Z,100.00
2023-03-03T18:20:24.127Z,100.00
2023-03-03T18:22:55.516Z,100.00
2023-03-03T18:25:26.308Z,100.00
2023-03-03T18:28:22.128Z,100.00
2023-03-03T18:31:00.579Z,100.00
2023-03-03T18:33:41.420Z,100.00
2023-03-03T18:36:37.791Z,100.00
2023-03-03T18:39:15.836Z,100.00
2023-03-03T18:42:11.963Z,100.00
2023-03-03T18:44:41.397Z,100.00
2023-03-03T18:47:11.908Z,100.00
2023-03-03T18:49:59.357Z,100.00
2023-03-03T18:52:30.871Z,100.00
2023-03-03T18:55:24.423Z,100.00
2023-03-03T18:58:31.235Z,100.00
2023-03-03T19:01:04.455Z,100.00
2023-03-03T19:03:37.255Z,100.00
2023-03-03T19:06:10.363Z,100.00
2023-03-03T19:08:53.915Z,100.00
2023-03-03T19:11:38.734Z,100.00
2023-03-03T19:14:21.129Z,100.00
2023-03-03T19:16:52.298Z,100.00
2023-03-03T19:19:24.439Z,100.00
2023-03-03T19:22:22.808Z,100.00
2023-03-03T19:25:18.779Z,100.00
2023-03-03T19:28:05.653Z,100.00
2023-03-03T19:30:54.419Z,100.00
2023-03-03T19:33:52.521Z,100.00
2023-03-03T19:36:37.582Z,100.00
2023-03-03T19:39:24.196Z,100.00
2023-03-03T19:42:05.583Z,100.00
2023-03-03T19:44:56.891Z,100.00
2023-03-03T19:47:37.337Z,100.00
2023-03-03T19:50:20.263Z,100.00
2023-03-03T19:52:56.368Z,100.00
2023-03-03T19:55:35.889Z,100.00
2023-03-03T19:58:14.364Z,100.00
2023-03-03T20:00:49.041Z,100.00
2023-03-03T20:03:41.732Z,100.00
2023-03-03T20:06:31.193Z,100.00
2023-03-03T20:09:05.070Z,100.00
2023-03-03T20:11:56.934Z,100.00
2023-03-03T20:14:46.229Z,100.00
2023-03-03T20:17:47.479Z,100.00
2023-03-03T20:20:46.945Z,100.00
2023-03-03T20:23:23.254Z,100.00
2023-03-03T20:26:00.122Z,100.00
2023-03-03T20:29:08.003Z,100.00
2023-03-03T20:31:45.820Z,100.00
2023-03-03T20:34:27.211Z,100.00
2023-03-03T20:37:06.264Z,100.00
2023-03-03T20:39:57.517Z,100.00
2023-03-03T20:42:38.634Z,100.00
2023-03-03T20:45:23.608Z,100.00
2023-03-03T20:48:08.219Z,100.00
2023-03-03T20:50:51.288Z,100.00
2023-03-03T20:53:27.876Z,100.00
2023-03-03T20:56:07.299Z,100.00
2023-03-03T20:58:47.579Z,100.00
2023-03-03T21:01:26.368Z,100.00
2023-03-03T21:03:56.747Z,100.00
2023-03-03T21:06:40.849Z,100.00
2023-03-03T21:09:23.204Z,100.00
2023-03-03T21:11:52.982Z,100.00
2023-03-03T21:14:24.751Z,100.00
2023-03-03T21:16:56.841Z,100.00
2023-03-03T21:19:29.193Z,100.00
2023-03-03T21:22:02.572Z,100.00
2023-03-03T21:24:49.274Z,100.00
2023-03-03T21:27:29.894Z,100.00
2023-03-03T21:30:10.982Z,100.00
2023-03-03T21:32:42.971Z,100.00
2023-03-03T21:35:14.819Z,100.00
2023-03-03T21:37:48.622Z,100.00
2023-03-03T21:40:21.085Z,100.00
2023-03-03T21:42:51.234Z,100.00
2023-03-03T21:45:21.460Z,100.00
2023-03-03T21:47:51.521Z,100.00
2023-03-03T21:50:21.539Z,100.00
2023-03-03T21:52:52.426Z,100.00
2023-03-03T21:55:21.891Z,100.00
2023-03-03T21:57:51.381Z,100.00
2023-03-03T22:00:21.595Z,100.00
2023-03-03T22:02:51.397Z,100.00
2023-03-03T22:05:20.889Z,100.00
2023-03-03T22:07:51.616Z,100.00
2023-03-03T22:10:20.908Z,100.00
2023-03-03T22:12:50.427Z,100.00
2023-03-03T22:15:19.666Z,100.00
2023-03-03T22:17:48.909Z,100.00
2023-03-03T22:20:18.606Z,100.00
2023-03-03T22:22:47.719Z,100.00
2023-03-03T22:25:18.886Z,100.00
2023-03-03T22:27:48.232Z,100.00
2023-03-03T22:30:18.411Z,100.00
2023-03-03T22:32:52.310Z,100.00
2023-03-03T22:35:21.744Z,100.00
2023-03-03T22:37:51.035Z,100.00
2023-03-03T22:40:22.109Z,100.00
2023-03-03T22:42:51.672Z,100.00
2023-03-03T22:45:21.164Z,100.00
2023-03-03T22:47:50.505Z,100.00
2023-03-03T22:50:20.345Z,100.00
2023-03-03T22:52:49.934Z,100.00
2023-03-03T22:55:19.397Z,100.00
2023-03-03T22:57:50.559Z,100.00
2023-03-03T23:00:21.585Z,100.00
2023-03-03T23:02:50.986Z,100.00
2023-03-03T23:05:20.671Z,100.00
2023-03-03T23:07:50.126Z,100.00
2023-03-03T23:10:20.208Z,100.00
2023-03-03T23:12:50.824Z,100.00
2023-03-03T23:15:20.478Z,100.00
2023-03-03T23:17:50.742Z,100.00
2023-03-03T23:20:22.547Z,100.00
2023-03-03T23:22:52.419Z,100.00
2023-03-03T23:25:23.085Z,100.00
2023-03-03T23:27:54.152Z,100.00
2023-03-03T23:30:24.451Z,100.00
2023-03-03T23:32:55.299Z,100.00
2023-03-03T23:35:24.789Z,100.00
2023-03-03T23:37:56.790Z,100.00
2023-03-03T23:40:26.376Z,100.00
2023-03-03T23:42:57.305Z,100.00
2023-03-03T23:45:26.323Z,100.00
2023-03-03T23:47:55.656Z,100.00
2023-03-03T23:50:25.062Z,100.00
2023-03-03T23:52:54.703Z,100.00
2023-03-03T23:55:24.462Z,100.00
2023-03-03T23:57:56.465Z,100.00
